createdAt,value
2022-11-16T00:02:17.107Z,5.50
2022-11-16T00:04:43.950Z,5.50
2022-11-16T00:07:11.051Z,5.60
2022-11-16T00:09:37.915Z,5.50
2022-11-16T00:12:05.892Z,5.50
2022-11-16T00:14:33.910Z,5.40
2022-11-16T00:17:01.205Z,5.40
2022-11-16T00:19:28.532Z,5.40
2022-11-16T00:21:55.617Z,5.40
2022-11-16T00:24:23.456Z,5.30
2022-11-16T00:26:50.755Z,5.30
2022-11-16T00:29:18.793Z,5.30
2022-11-16T00:31:46.211Z,5.30
2022-11-16T00:34:13.610Z,5.40
2022-11-16T00:36:40.593Z,5.30
2022-11-16T00:39:07.440Z,5.30
2022-11-16T00:41:34.335Z,5.30
2022-11-16T00:44:01.119Z,5.30
2022-11-16T00:46:27.918Z,5.20
2022-11-16T00:48:54.769Z,5.20
2022-11-16T00:51:21.661Z,5.20
2022-11-16T00:53:48.456Z,5.30
2022-11-16T00:56:15.315Z,5.30
2022-11-16T00:58:42.149Z,5.30
2022-11-16T01:01:09.522Z,5.20
2022-11-16T01:03:36.482Z,5.20
2022-11-16T01:06:08.032Z,5.10
2022-11-16T01:08:36.314Z,5.10
2022-11-16T01:11:22.341Z,5.10
2022-11-16T01:13:49.440Z,5.10
2022-11-16T01:16:16.933Z,5.10
2022-11-16T01:18:44.512Z,5.00
2022-11-16T01:21:11.409Z,5.10
2022-11-16T01:23:38.303Z,5.10
2022-11-16T01:26:05.201Z,5.10
2022-11-16T01:28:32.680Z,5.10
2022-11-16T01:31:00.042Z,5.10
2022-11-16T01:33:26.923Z,5.10
2022-11-16T01:35:53.793Z,5.00
2022-11-16T01:38:28.445Z,5.00
2022-11-16T01:40:56.575Z,5.00
2022-11-16T01:43:24.499Z,5.00
2022-11-16T01:45:51.353Z,5.00
2022-11-16T01:48:22.198Z,5.00
2022-11-16T01:50:49.333Z,5.00
2022-11-16T01:53:16.307Z,5.00
2022-11-16T01:55:44.640Z,5.00
2022-11-16T01:58:14.712Z,4.90
2022-11-16T02:00:41.583Z,4.90
2022-11-16T02:03:08.389Z,4.90
2022-11-16T02:05:58.093Z,5.00
2022-11-16T02:08:53.698Z,5.00
2022-11-16T02:11:27.607Z,5.00
2022-11-16T02:14:02.498Z,4.90
2022-11-16T02:16:39.234Z,4.80
2022-11-16T02:19:26.279Z,4.90
2022-11-16T02:22:04.988Z,4.90
2022-11-16T02:24:50.523Z,4.80
2022-11-16T02:27:33.325Z,4.80
2022-11-16T02:30:00.365Z,4.80
2022-11-16T02:32:35.220Z,4.70
2022-11-16T02:35:01.995Z,4.80
2022-11-16T02:37:31.720Z,4.80
2022-11-16T02:39:59.806Z,4.80
2022-11-16T02:42:30.527Z,4.80
2022-11-16T02:44:58.188Z,4.80
2022-11-16T02:47:30.584Z,4.80
2022-11-16T02:50:06.719Z,4.80
2022-11-16T02:52:33.577Z,4.80
2022-11-16T02:55:00.409Z,4.80
2022-11-16T02:57:27.176Z,4.80
2022-11-16T02:59:55.907Z,4.80
2022-11-16T03:02:41.377Z,4.80
2022-11-16T03:05:11.818Z,4.80
2022-11-16T03:07:47.984Z,4.70
2022-11-16T03:10:35.471Z,4.70
2022-11-16T03:13:03.745Z,4.70
2022-11-16T03:15:30.595Z,4.70
2022-11-16T03:17:58.575Z,4.70
2022-11-16T03:20:27.192Z,4.70
2022-11-16T03:22:56.608Z,4.70
2022-11-16T03:25:24.715Z,4.60
2022-11-16T03:27:56.107Z,4.60
2022-11-16T03:30:24.287Z,4.60
2022-11-16T03:32:54.141Z,4.60
2022-11-16T03:35:23.318Z,4.60
2022-11-16T03:37:51.886Z,4.70
2022-11-16T03:40:19.304Z,4.60
2022-11-16T03:42:46.589Z,4.60
2022-11-16T03:45:13.789Z,4.60
2022-11-16T03:47:41.652Z,4.60
2022-11-16T03:50:09.240Z,4.60
2022-11-16T03:52:36.329Z,4.60
2022-11-16T03:55:03.262Z,4.70
2022-11-16T03:57:30.107Z,4.70
2022-11-16T03:59:57.126Z,4.70
2022-11-16T04:02:24.212Z,4.70
2022-11-16T04:05:09.610Z,4.70
2022-11-16T04:07:55.023Z,4.70
2022-11-16T04:10:40.500Z,4.60
2022-11-16T04:13:28.581Z,4.70
2022-11-16T04:16:14.101Z,4.70
2022-11-16T04:18:59.625Z,4.70
2022-11-16T04:21:50.775Z,4.70
2022-11-16T04:24:20.438Z,4.70
2022-11-16T04:27:07.994Z,4.70
2022-11-16T04:29:35.862Z,4.70
2022-11-16T04:32:21.385Z,4.70
2022-11-16T04:35:06.831Z,4.70
2022-11-16T04:37:51.971Z,4.70
2022-11-16T04:40:19.970Z,4.70
2022-11-16T04:42:53.744Z,4.70
2022-11-16T04:45:39.599Z,4.70
2022-11-16T04:48:06.777Z,4.70
2022-11-16T04:50:33.937Z,4.70
2022-11-16T04:53:00.755Z,4.70
2022-11-16T04:55:27.658Z,4.60
2022-11-16T04:57:54.725Z,4.60
2022-11-16T05:00:21.757Z,4.60
2022-11-16T05:02:48.581Z,4.60
2022-11-16T05:05:15.603Z,4.60
2022-11-16T05:07:42.459Z,4.60
2022-11-16T05:10:09.727Z,4.60
2022-11-16T05:12:36.683Z,4.50
2022-11-16T05:15:04.048Z,4.50
2022-11-16T05:17:30.817Z,4.60
2022-11-16T05:20:16.134Z,4.60
2022-11-16T05:22:43.016Z,4.60
2022-11-16T05:25:10.610Z,4.60
2022-11-16T05:27:37.844Z,4.60
2022-11-16T05:30:05.316Z,4.60
2022-11-16T05:32:32.196Z,4.70
2022-11-16T05:34:59.019Z,4.70
2022-11-16T05:37:26.693Z,4.70
2022-11-16T05:39:54.754Z,4.70
2022-11-16T05:42:23.384Z,4.70
2022-11-16T05:44:50.365Z,4.70
2022-11-16T05:47:17.228Z,4.70
2022-11-16T05:49:44.044Z,4.70
2022-11-16T05:52:10.887Z,4.60
2022-11-16T05:54:37.724Z,4.60
2022-11-16T05:57:04.673Z,4.60
2022-11-16T05:59:31.496Z,4.60
2022-11-16T06:01:58.293Z,4.60
2022-11-16T06:04:25.168Z,4.60
2022-11-16T06:06:52.273Z,4.60
2022-11-16T06:09:19.217Z,4.60
2022-11-16T06:11:46.074Z,4.60
2022-11-16T06:14:12.895Z,4.60
2022-11-16T06:16:39.683Z,4.70
2022-11-16T06:19:06.520Z,4.70
2022-11-16T06:21:33.419Z,4.70
2022-11-16T06:24:00.412Z,4.70
2022-11-16T06:26:27.222Z,4.70
2022-11-16T06:28:55.018Z,4.70
2022-11-16T06:31:22.309Z,4.70
2022-11-16T06:33:49.107Z,4.70
2022-11-16T06:36:15.905Z,4.70
2022-11-16T06:38:42.724Z,4.70
2022-11-16T06:41:09.541Z,4.70
2022-11-16T06:43:36.323Z,4.80
2022-11-16T06:46:03.324Z,4.70
2022-11-16T06:48:30.975Z,4.80
2022-11-16T06:50:57.914Z,4.70
2022-11-16T06:53:29.046Z,4.70
2022-11-16T06:56:00.471Z,4.70
2022-11-16T06:58:28.954Z,4.70
2022-11-16T07:00:55.830Z,4.80
2022-11-16T07:03:22.585Z,4.80
2022-11-16T07:05:49.399Z,4.80
2022-11-16T07:08:16.246Z,4.70
2022-11-16T07:10:43.021Z,4.70
2022-11-16T07:13:09.796Z,4.70
2022-11-16T07:15:36.671Z,4.70
2022-11-16T07:18:04.793Z,4.70
2022-11-16T07:20:31.857Z,4.70
2022-11-16T07:23:02.438Z,4.70
2022-11-16T07:25:29.337Z,4.70
2022-11-16T07:27:57.448Z,4.80
2022-11-16T07:30:24.299Z,4.70
2022-11-16T07:32:51.101Z,4.70
2022-11-16T07:35:17.962Z,4.70
2022-11-16T07:37:44.717Z,4.70
2022-11-16T07:40:11.593Z,4.80
2022-11-16T07:42:38.408Z,4.70
2022-11-16T07:45:05.481Z,4.80
2022-11-16T07:47:35.444Z,4.80
2022-11-16T07:50:02.340Z,4.90
2022-11-16T07:52:29.192Z,4.90
2022-11-16T07:54:56.040Z,4.90
2022-11-16T07:57:22.819Z,4.90
2022-11-16T07:59:49.859Z,4.90
2022-11-16T08:02:16.780Z,4.90
2022-11-16T08:04:43.727Z,4.90
2022-11-16T08:07:11.566Z,4.90
2022-11-16T08:09:39.562Z,4.80
2022-11-16T08:12:06.829Z,4.90
2022-11-16T08:14:33.671Z,4.90
2022-11-16T08:17:00.537Z,4.90
2022-11-16T08:19:27.380Z,4.90
2022-11-16T08:21:54.251Z,4.90
2022-11-16T08:24:21.100Z,5.00
2022-11-16T08:26:47.971Z,5.00
2022-11-16T08:29:15.329Z,5.00
2022-11-16T08:31:43.949Z,5.00
2022-11-16T08:34:10.908Z,5.00
2022-11-16T08:36:37.766Z,5.00
2022-11-16T08:39:04.637Z,5.00
2022-11-16T08:41:31.521Z,5.00
2022-11-16T08:44:00.410Z,5.00
2022-11-16T08:46:27.217Z,4.90
2022-11-16T08:48:57.621Z,5.00
2022-11-16T08:51:25.186Z,5.00
2022-11-16T08:53:56.033Z,5.00
2022-11-16T08:56:22.873Z,5.00
2022-11-16T08:58:57.866Z,5.00
2022-11-16T09:01:26.982Z,5.00
2022-11-16T09:03:54.157Z,5.10
2022-11-16T09:06:21.591Z,5.10
2022-11-16T09:08:48.417Z,5.10
2022-11-16T09:11:16.987Z,5.10
2022-11-16T09:13:47.368Z,5.10
2022-11-16T09:16:16.850Z,5.10
2022-11-16T09:18:44.693Z,5.10
2022-11-16T09:21:11.542Z,5.10
2022-11-16T09:23:38.380Z,5.20
2022-11-16T09:26:05.808Z,5.20
2022-11-16T09:28:33.137Z,5.20
2022-11-16T09:31:02.189Z,5.20
2022-11-16T09:33:30.400Z,5.30
2022-11-16T09:36:01.529Z,5.30
2022-11-16T09:38:40.704Z,5.30
2022-11-16T09:41:15.215Z,5.30
2022-11-16T09:44:05.285Z,5.30
2022-11-16T09:46:34.208Z,5.30
2022-11-16T09:49:03.377Z,5.40
2022-11-16T09:51:32.691Z,5.40
2022-11-16T09:54:06.692Z,5.40
2022-11-16T09:56:36.864Z,5.30
2022-11-16T09:59:15.024Z,5.30
2022-11-16T10:01:50.829Z,5.40
2022-11-16T10:04:20.283Z,5.40
2022-11-16T10:06:59.146Z,5.40
2022-11-16T10:09:26.328Z,5.40
2022-11-16T10:12:11.775Z,5.40
2022-11-16T10:14:38.580Z,5.40
2022-11-16T10:17:05.364Z,5.40
2022-11-16T10:19:49.336Z,5.40
2022-11-16T10:22:25.438Z,5.50
2022-11-16T10:24:59.498Z,5.40
2022-11-16T10:27:30.910Z,5.50
2022-11-16T10:30:10.138Z,5.40
2022-11-16T10:32:55.320Z,5.50
2022-11-16T10:35:22.092Z,5.50
2022-11-16T10:37:50.148Z,5.50
2022-11-16T10:40:21.782Z,5.50
2022-11-16T10:42:54.946Z,5.50
2022-11-16T10:45:45.117Z,5.50
2022-11-16T10:48:30.687Z,5.50
2022-11-16T10:50:57.570Z,5.50
2022-11-16T10:53:35.239Z,5.50
2022-11-16T10:56:02.176Z,5.60
2022-11-16T10:58:48.870Z,5.50
2022-11-16T11:01:27.359Z,5.60
2022-11-16T11:03:54.222Z,5.60
2022-11-16T11:06:23.607Z,5.60
2022-11-16T11:08:50.833Z,5.60
2022-11-16T11:11:41.923Z,5.60
2022-11-16T11:14:14.621Z,5.50
2022-11-16T11:16:41.955Z,5.50
2022-11-16T11:19:38.148Z,5.50
2022-11-16T11:22:05.054Z,5.50
2022-11-16T11:24:47.247Z,5.50
2022-11-16T11:27:15.875Z,5.50
2022-11-16T11:29:43.080Z,5.50
2022-11-16T11:32:23.518Z,5.50
2022-11-16T11:34:54.785Z,5.50
2022-11-16T11:37:23.874Z,5.50
2022-11-16T11:40:04.339Z,5.50
2022-11-16T11:42:31.156Z,5.50
2022-11-16T11:45:00.380Z,5.50
2022-11-16T11:47:56.691Z,5.50
2022-11-16T11:50:21.681Z,5.50
2022-11-16T11:52:57.861Z,5.50
2022-11-16T11:55:24.792Z,5.50
2022-11-16T11:57:53.757Z,5.60
2022-11-16T12:00:20.987Z,5.50
2022-11-16T12:03:11.051Z,5.50
2022-11-16T12:05:47.046Z,5.50
2022-11-16T12:08:14.869Z,5.60
2022-11-16T12:10:53.412Z,5.50
2022-11-16T12:13:32.824Z,5.50
2022-11-16T12:16:15.238Z,5.50
2022-11-16T12:19:00.424Z,5.50
2022-11-16T12:21:52.208Z,5.40
2022-11-16T12:24:22.132Z,5.40
2022-11-16T12:26:54.933Z,5.40
2022-11-16T12:29:35.254Z,5.40
2022-11-16T12:32:05.056Z,5.30
2022-11-16T12:34:38.041Z,5.30
2022-11-16T12:37:20.998Z,5.30
2022-11-16T12:40:06.282Z,5.30
2022-11-16T12:42:33.328Z,5.30
2022-11-16T12:45:02.896Z,5.30
2022-11-16T12:47:32.762Z,5.30
2022-11-16T12:50:02.343Z,5.20
2022-11-16T12:52:44.731Z,5.20
2022-11-16T12:55:34.488Z,5.30
2022-11-16T12:58:04.113Z,5.20
2022-11-16T13:00:36.710Z,5.10
2022-11-16T13:03:18.547Z,5.10
2022-11-16T13:05:50.087Z,5.10
2022-11-16T13:08:36.071Z,5.00
2022-11-16T13:11:23.726Z,4.90
2022-11-16T13:13:53.878Z,4.90
2022-11-16T13:16:21.708Z,4.80
2022-11-16T13:18:48.606Z,4.80
2022-11-16T13:21:20.582Z,4.80
2022-11-16T13:23:50.529Z,4.80
2022-11-16T13:26:20.414Z,4.80
2022-11-16T13:28:54.509Z,4.70
2022-11-16T13:31:33.431Z,4.70
2022-11-16T13:34:03.436Z,4.70
2022-11-16T13:36:43.325Z,4.60
2022-11-16T13:39:13.753Z,4.60
2022-11-16T13:41:43.883Z,4.60
2022-11-16T13:44:17.966Z,4.50
2022-11-16T13:46:56.139Z,4.40
2022-11-16T13:49:26.521Z,4.40
2022-11-16T13:51:55.477Z,4.30
2022-11-16T13:54:46.528Z,4.30
2022-11-16T13:57:27.238Z,4.30
2022-11-16T14:00:05.083Z,4.20
2022-11-16T14:02:33.693Z,4.30
2022-11-16T14:05:01.537Z,4.20
2022-11-16T14:07:29.966Z,4.20
2022-11-16T14:09:56.886Z,4.20
2022-11-16T14:12:39.131Z,4.10
2022-11-16T14:15:19.349Z,4.20
2022-11-16T14:17:53.732Z,4.20
2022-11-16T14:20:34.479Z,4.20
2022-11-16T14:23:11.478Z,4.10
2022-11-16T14:25:40.609Z,4.10
2022-11-16T14:28:12.453Z,4.20
2022-11-16T14:30:57.982Z,4.10
2022-11-16T14:33:32.326Z,4.10
2022-11-16T14:35:59.975Z,4.10
2022-11-16T14:38:30.928Z,4.10
2022-11-16T14:40:59.906Z,4.10
2022-11-16T14:43:31.451Z,4.20
2022-11-16T14:46:06.048Z,4.20
2022-11-16T14:48:33.343Z,4.20
2022-11-16T14:51:00.217Z,4.20
2022-11-16T14:53:27.683Z,4.20
2022-11-16T14:56:05.230Z,4.20
2022-11-16T14:58:32.202Z,4.20
2022-11-16T15:01:00.532Z,4.20
2022-11-16T15:03:29.992Z,4.20
2022-11-16T15:05:58.547Z,4.20
2022-11-16T15:08:29.971Z,4.10
2022-11-16T15:10:56.956Z,4.10
2022-11-16T15:13:24.976Z,4.00
2022-11-16T15:16:14.654Z,4.00
2022-11-16T15:18:41.565Z,3.90
2022-11-16T15:21:20.790Z,3.90
2022-11-16T15:24:02.061Z,3.90
2022-11-16T15:26:35.324Z,3.90
2022-11-16T15:29:02.202Z,3.80
2022-11-16T15:31:29.037Z,3.90
2022-11-16T15:33:55.937Z,3.80
2022-11-16T15:36:22.866Z,3.80
2022-11-16T15:38:50.702Z,3.80
2022-11-16T15:41:18.377Z,3.80
2022-11-16T15:44:09.326Z,3.80
2022-11-16T15:46:36.921Z,3.80
2022-11-16T15:49:03.908Z,3.80
2022-11-16T15:51:34.140Z,3.80
2022-11-16T15:54:14.387Z,3.70
2022-11-16T15:56:41.676Z,3.70
2022-11-16T15:59:12.647Z,3.60
2022-11-16T16:01:43.572Z,3.60
2022-11-16T16:04:14.964Z,3.60
2022-11-16T16:07:02.183Z,3.50
2022-11-16T16:09:36.998Z,3.40
2022-11-16T16:12:23.303Z,3.40
2022-11-16T16:14:51.522Z,3.40
2022-11-16T16:17:24.144Z,3.30
2022-11-16T16:19:55.407Z,3.20
2022-11-16T16:22:28.271Z,3.20
2022-11-16T16:24:55.235Z,3.20
2022-11-16T16:27:23.613Z,3.20
2022-11-16T16:29:51.581Z,3.20
2022-11-16T16:32:23.300Z,3.20
2022-11-16T16:34:51.265Z,3.20
2022-11-16T16:37:18.716Z,3.10
2022-11-16T16:39:46.144Z,3.10
2022-11-16T16:42:15.017Z,3.10
2022-11-16T16:44:43.253Z,3.10
2022-11-16T16:47:11.195Z,3.10
2022-11-16T16:49:38.276Z,3.10
2022-11-16T16:52:05.719Z,3.00
2022-11-16T16:54:32.955Z,3.10
2022-11-16T16:57:02.007Z,3.10
2022-11-16T16:59:30.699Z,3.00
2022-11-16T17:01:58.365Z,3.00
2022-11-16T17:04:25.395Z,3.00
2022-11-16T17:06:52.654Z,2.90
2022-11-16T17:09:20.338Z,2.90
2022-11-16T17:11:48.209Z,2.90
2022-11-16T17:14:15.750Z,2.90
2022-11-16T17:16:42.903Z,2.90
2022-11-16T17:19:10.830Z,2.90
2022-11-16T17:21:38.250Z,2.90
2022-11-16T17:24:05.964Z,2.90
2022-11-16T17:26:32.839Z,2.90
2022-11-16T17:29:00.237Z,2.90
2022-11-16T17:31:28.748Z,2.90
2022-11-16T17:34:00.648Z,2.90
2022-11-16T17:36:28.116Z,2.90
2022-11-16T17:38:55.282Z,2.90
2022-11-16T17:41:22.939Z,2.90
2022-11-16T17:43:52.635Z,3.00
2022-11-16T17:46:20.788Z,2.90
2022-11-16T17:48:51.439Z,2.90
2022-11-16T17:51:23.240Z,2.90
2022-11-16T17:53:50.114Z,2.90
2022-11-16T17:56:18.984Z,2.90
2022-11-16T17:58:46.434Z,2.80
2022-11-16T18:01:14.551Z,2.80
2022-11-16T18:03:42.381Z,2.70
2022-11-16T18:06:11.196Z,2.70
2022-11-16T18:08:41.277Z,2.70
2022-11-16T18:11:10.452Z,2.60
2022-11-16T18:13:38.087Z,2.60
2022-11-16T18:16:08.628Z,2.60
2022-11-16T18:18:36.035Z,2.60
2022-11-16T18:21:03.544Z,2.60
2022-11-16T18:23:31.090Z,2.70
2022-11-16T18:25:58.665Z,2.60
2022-11-16T18:28:25.502Z,2.70
2022-11-16T18:30:52.913Z,2.70
2022-11-16T18:33:20.404Z,2.70
2022-11-16T18:35:47.357Z,2.60
2022-11-16T18:38:14.803Z,2.60
2022-11-16T18:40:42.238Z,2.60
2022-11-16T18:43:13.363Z,2.60
2022-11-16T18:45:40.741Z,2.60
2022-11-16T18:48:07.827Z,2.60
2022-11-16T18:50:35.325Z,2.60
2022-11-16T18:53:02.758Z,2.60
2022-11-16T18:55:30.064Z,2.60
2022-11-16T18:57:56.961Z,2.60
2022-11-16T19:00:23.862Z,2.60
2022-11-16T19:02:50.712Z,2.60
2022-11-16T19:05:17.630Z,2.60
2022-11-16T19:07:44.488Z,2.60
2022-11-16T19:10:11.941Z,2.50
2022-11-16T19:12:38.725Z,2.50
2022-11-16T19:15:05.797Z,2.40
2022-11-16T19:17:32.645Z,2.40
2022-11-16T19:19:59.631Z,2.40
2022-11-16T19:22:26.497Z,2.40
2022-11-16T19:24:53.451Z,2.40
2022-11-16T19:27:20.254Z,2.40
2022-11-16T19:29:47.039Z,2.30
2022-11-16T19:32:13.979Z,2.30
2022-11-16T19:34:40.733Z,2.30
2022-11-16T19:37:07.580Z,2.30
2022-11-16T19:39:34.395Z,2.30
2022-11-16T19:42:01.205Z,2.30
2022-11-16T19:44:28.055Z,2.20
2022-11-16T19:46:54.924Z,2.30
2022-11-16T19:49:21.929Z,2.30
2022-11-16T19:51:49.713Z,2.30
2022-11-16T19:54:16.577Z,2.30
2022-11-16T19:56:43.611Z,2.30
2022-11-16T19:59:10.443Z,2.30
2022-11-16T20:01:37.276Z,2.30
2022-11-16T20:04:04.716Z,2.40
2022-11-16T20:06:32.828Z,2.40
2022-11-16T20:09:01.137Z,2.40
2022-11-16T20:11:29.121Z,2.40
2022-11-16T20:13:56.862Z,2.40
2022-11-16T20:16:25.197Z,2.30
2022-11-16T20:18:52.577Z,2.30
2022-11-16T20:21:28.209Z,2.30
2022-11-16T20:24:00.235Z,2.30
2022-11-16T20:26:30.981Z,2.30
2022-11-16T20:28:57.973Z,2.30
2022-11-16T20:31:26.019Z,2.30
2022-11-16T20:33:56.653Z,2.40
2022-11-16T20:36:24.249Z,2.40
2022-11-16T20:38:51.491Z,2.40
2022-11-16T20:41:22.242Z,2.40
2022-11-16T20:43:53.173Z,2.40
2022-11-16T20:46:21.260Z,2.40
2022-11-16T20:48:48.278Z,2.40
2022-11-16T20:51:16.955Z,2.40
2022-11-16T20:53:44.021Z,2.40
2022-11-16T20:56:11.384Z,2.50
2022-11-16T20:58:38.343Z,2.40
2022-11-16T21:01:15.615Z,2.40
2022-11-16T21:03:44.523Z,2.50
2022-11-16T21:06:12.381Z,2.50
2022-11-16T21:08:39.920Z,2.60
2022-11-16T21:11:10.855Z,2.60
2022-11-16T21:13:56.390Z,2.60
2022-11-16T21:16:23.176Z,2.60
2022-11-16T21:18:49.980Z,2.60
2022-11-16T21:21:16.780Z,2.60
2022-11-16T21:23:47.483Z,2.60
2022-11-16T21:26:15.379Z,2.70
2022-11-16T21:28:44.784Z,2.70
2022-11-16T21:31:12.729Z,2.70
2022-11-16T21:33:39.685Z,2.70
2022-11-16T21:36:07.481Z,2.70
2022-11-16T21:38:34.588Z,2.80
2022-11-16T21:41:01.723Z,2.80
2022-11-16T21:43:28.598Z,2.80
2022-11-16T21:46:00.923Z,2.80
2022-11-16T21:48:27.764Z,2.80
2022-11-16T21:51:04.968Z,2.80
2022-11-16T21:53:32.360Z,2.80
2022-11-16T21:55:59.664Z,2.90
2022-11-16T21:58:26.494Z,2.90
2022-11-16T22:00:54.081Z,2.90
2022-11-16T22:03:21.490Z,2.90
2022-11-16T22:06:11.837Z,2.90
2022-11-16T22:08:38.933Z,2.90
2022-11-16T22:11:06.193Z,2.90
2022-11-16T22:13:33.247Z,3.00
2022-11-16T22:16:04.480Z,2.90
2022-11-16T22:18:32.932Z,2.90
2022-11-16T22:21:03.050Z,2.90
2022-11-16T22:23:29.956Z,2.90
2022-11-16T22:26:15.378Z,2.90
2022-11-16T22:28:42.252Z,2.80
2022-11-16T22:31:12.953Z,2.80
2022-11-16T22:33:40.311Z,2.70
2022-11-16T22:36:10.256Z,2.80
2022-11-16T22:38:37.101Z,2.70
2022-11-16T22:41:04.147Z,2.70
2022-11-16T22:43:31.438Z,2.60
2022-11-16T22:46:02.521Z,2.70
2022-11-16T22:48:30.362Z,2.70
2022-11-16T22:51:17.769Z,2.70
2022-11-16T22:53:44.622Z,2.60
2022-11-16T22:56:11.806Z,2.60
2022-11-16T22:58:39.102Z,2.60
2022-11-16T23:01:07.484Z,2.60
2022-11-16T23:03:34.862Z,2.60
2022-11-16T23:06:02.191Z,2.60
2022-11-16T23:08:28.952Z,2.60
2022-11-16T23:11:21.775Z,2.60
2022-11-16T23:14:07.827Z,2.60
2022-11-16T23:16:34.951Z,2.60
2022-11-16T23:19:01.800Z,2.70
2022-11-16T23:21:57.817Z,2.70
2022-11-16T23:24:43.095Z,2.70
2022-11-16T23:27:28.630Z,2.70
2022-11-16T23:29:59.035Z,2.70
2022-11-16T23:32:26.398Z,2.60
2022-11-16T23:34:53.235Z,2.70
2022-11-16T23:37:20.008Z,2.70
2022-11-16T23:39:46.814Z,2.70
2022-11-16T23:42:32.451Z,2.60
2022-11-16T23:44:59.224Z,2.70
2022-11-16T23:47:26.020Z,2.60
2022-11-16T23:49:52.840Z,2.70
2022-11-16T23:52:19.673Z,2.70
2022-11-16T23:54:46.469Z,2.60
2022-11-16T23:57:13.345Z,2.60
2022-11-16T23:59:40.288Z,2.50
